HSPN

Port Sudan New International Airport

Port Sudan, Sudan

HSPN 110400Z 34010KT 6000 SCT030 24/18 Q1014

Observed Flight Rules
Dec-11 @ 04:00 UTC (5 hours ago) Marginal Visual Flight Rules
Wind Visibility Clouds
340° at 10 knots 6,003 meters
  • Scattered at 3,000' AGL
Temperatures Readings
Current 24°C / 75°F
Dewpoint 18°C / 64°F
Humidity 69%
Altimeter 29.94" Hg
Pressure 1014 hPa
Elevation 138
Observed Flight Rules
Dec-11 @ 04:00 UTC
(5 hours ago)
MVFR
Wind Visibility
340° at 10 knots 6,003 meters
Clouds
  • Scattered at 3,000' AGL
Temperature Dewpoint
24°C / 75°F 18°C / 64°F
Humidity Altimeter Pressure
69% 29.94" Hg 1014 hPa